Aérodrome :
LOGIN :

S'inscrire | Disclaimer

   EN    FR    IT 

 










Légende :    VFR   VFR Marginal   IFR   IFR Intensif   IFR Très Intensif
Visi : 
Plafond : 
>= 8 km
>= 3000ft
5 à 8 km
1000 à 3000 ft
1500m à 5 km
500 à 1000 ft
800 à 1500m
200 à 500 ft
< 800m
< 200 ft
Symboles :   Orages  Brouillard  Fortes neiges  Fortes précipitations  Vent > 20 kt
SIGMETs :   Divers  Orages  Givrage  Turbulence  Onde Orograph.  Cendres Volcan.







- Altitude de l'aérodrome : 364 ft
- Code IATA : FRA


EDDF - Frankfurt Int.

DERNIER METAR :
  • 230820Z 23008KT 200V290 9999 SCT031 BKN220 22/14 Q1016 NOSIG

METARs EXPIRÉS :
  • 230750Z 27006KT 230V320 9999 SCT031 BKN220 22/14 Q1016 NOSIG
  • 230720Z 28007KT 230V320 9999 FEW031 BKN220 21/13 Q1016 NOSIG
  • 230650Z 29007KT 250V330 9999 FEW031 BKN220 21/13 Q1015 NOSIG
  • 230620Z 27007KT 240V310 9999 FEW028 BKN220 21/13 Q1015 NOSIG
  • 230550Z 26007KT 220V310 9999 FEW028 BKN200 20/14 Q1015 NOSIG

TAF TAF EDDF
Valide du 23 à 06h jusqu'au 24 à 12h UTC


230500Z 2306/2412 26007KT 9999 FEW040
BECMG 2308/2310 27012KT
BECMG 2318/2320 26005KT
BECMG 2407/2409 25012KT
Pas de NOTAMs connus pour ce terrain.



MET'MAP, la Météo Aéronautique d'un coup d'oeil ! - Copyright ORBIFLY Décembre 2007 - Disclaimer

ORBIFLY MET'MAP TEAM :

Programmation & Développement : Alexandra Zaïnal
Conception & Développement : Baudouin d'Aumeries
Co-Programmation & Développement : Marc-Olivier Méhu
Soutien technique & logistique : Manuel Goepfert

Contact : metmap@orbifly.com




SOURCES & CREDITS :

   NOAA